sensor_id;sensor_type;location;lat;lon;timestamp;pressure;altitude;pressure_sealevel;temperature;humidity
12077;BME280;12420;42.676;23.262;2023-02-03T00:00:05;94777.84;;;3.52;100.00
12077;BME280;12420;42.676;23.262;2023-02-03T00:02:32;94798.69;;;3.49;100.00
12077;BME280;12420;42.676;23.262;2023-02-03T00:05:02;94819.19;;;3.39;100.00
12077;BME280;12420;42.676;23.262;2023-02-03T00:07:29;94783.41;;;3.42;100.00
12077;BME280;12420;42.676;23.262;2023-02-03T00:09:58;94782.69;;;3.27;100.00
12077;BME280;12420;42.676;23.262;2023-02-03T00:12:24;94793.31;;;3.40;100.00
12077;BME280;12420;42.676;23.262;2023-02-03T00:14:51;94798.91;;;3.31;100.00
12077;BME280;12420;42.676;23.262;2023-02-03T00:17:18;94775.75;;;3.11;100.00
12077;BME280;12420;42.676;23.262;2023-02-03T00:19:46;94790.31;;;3.38;100.00
12077;BME280;12420;42.676;23.262;2023-02-03T00:22:15;94794.16;;;3.46;100.00
12077;BME280;12420;42.676;23.262;2023-02-03T00:24:42;94800.34;;;3.26;100.00
12077;BME280;12420;42.676;23.262;2023-02-03T00:27:10;94801.09;;;3.62;100.00
12077;BME280;12420;42.676;23.262;2023-02-03T00:29:37;94803.84;;;3.62;100.00
12077;BME280;12420;42.676;23.262;2023-02-03T00:32:04;94742.94;;;3.11;100.00
12077;BME280;12420;42.676;23.262;2023-02-03T00:34:33;94773.03;;;3.46;100.00
12077;BME280;12420;42.676;23.262;2023-02-03T00:37:00;94763.13;;;3.14;100.00
12077;BME280;12420;42.676;23.262;2023-02-03T00:39:28;94810.38;;;3.50;100.00
12077;BME280;12420;42.676;23.262;2023-02-03T00:41:55;94822.00;;;3.44;100.00
12077;BME280;12420;42.676;23.262;2023-02-03T00:44:23;94820.16;;;3.21;100.00
12077;BME280;12420;42.676;23.262;2023-02-03T00:46:50;94782.06;;;3.02;100.00
12077;BME280;12420;42.676;23.262;2023-02-03T00:49:16;94824.09;;;3.20;100.00
12077;BME280;12420;42.676;23.262;2023-02-03T00:51:43;94791.97;;;3.00;100.00
12077;BME280;12420;42.676;23.262;2023-02-03T00:54:10;94821.22;;;2.94;100.00
12077;BME280;12420;42.676;23.262;2023-02-03T00:56:37;94650.00;;;1.72;100.00
12077;BME280;12420;42.676;23.262;2023-02-03T00:59:05;94813.84;;;3.00;100.00
12077;BME280;12420;42.676;23.262;2023-02-03T01:01:33;94799.72;;;2.87;100.00
12077;BME280;12420;42.676;23.262;2023-02-03T01:04:00;94828.97;;;2.95;100.00
12077;BME280;12420;42.676;23.262;2023-02-03T01:06:27;94777.09;;;2.56;100.00
12077;BME280;12420;42.676;23.262;2023-02-03T01:08:54;94787.66;;;2.64;100.00
12077;BME280;12420;42.676;23.262;2023-02-03T01:11:25;94840.44;;;2.85;100.00
12077;BME280;12420;42.676;23.262;2023-02-03T01:13:54;94841.09;;;2.79;100.00
12077;BME280;12420;42.676;23.262;2023-02-03T01:16:24;94831.19;;;2.52;100.00
12077;BME280;12420;42.676;23.262;2023-02-03T01:18:53;94824.13;;;2.60;100.00
12077;BME280;12420;42.676;23.262;2023-02-03T01:21:22;94857.50;;;2.79;100.00
12077;BME280;12420;42.676;23.262;2023-02-03T01:23:50;94808.94;;;2.59;100.00
12077;BME280;12420;42.676;23.262;2023-02-03T01:26:18;94846.38;;;2.83;100.00
12077;BME280;12420;42.676;23.262;2023-02-03T01:28:51;94836.47;;;2.71;100.00
12077;BME280;12420;42.676;23.262;2023-02-03T01:31:20;94836.78;;;2.88;100.00
12077;BME280;12420;42.676;23.262;2023-02-03T01:33:47;94823.84;;;2.73;100.00
12077;BME280;12420;42.676;23.262;2023-02-03T01:36:16;94842.13;;;2.82;100.00
12077;BME280;12420;42.676;23.262;2023-02-03T01:38:44;94831.47;;;2.84;100.00
12077;BME280;12420;42.676;23.262;2023-02-03T01:41:12;94834.50;;;2.86;100.00
12077;BME280;12420;42.676;23.262;2023-02-03T01:43:41;94840.56;;;2.90;100.00
12077;BME280;12420;42.676;23.262;2023-02-03T01:46:23;94835.81;;;2.76;100.00
12077;BME280;12420;42.676;23.262;2023-02-03T01:48:50;94850.03;;;2.50;100.00
12077;BME280;12420;42.676;23.262;2023-02-03T01:51:20;94743.66;;;1.78;100.00
12077;BME280;12420;42.676;23.262;2023-02-03T01:53:48;94799.72;;;2.03;100.00
12077;BME280;12420;42.676;23.262;2023-02-03T01:56:16;94844.19;;;2.18;100.00
12077;BME280;12420;42.676;23.262;2023-02-03T01:58:44;94846.66;;;2.16;100.00
12077;BME280;12420;42.676;23.262;2023-02-03T02:01:12;94840.66;;;2.03;100.00
12077;BME280;12420;42.676;23.262;2023-02-03T02:03:41;94816.47;;;2.11;100.00
12077;BME280;12420;42.676;23.262;2023-02-03T02:06:13;94749.34;;;1.65;100.00
12077;BME280;12420;42.676;23.262;2023-02-03T02:08:43;94725.84;;;1.44;100.00
12077;BME280;12420;42.676;23.262;2023-02-03T02:11:12;94841.75;;;2.21;100.00
12077;BME280;12420;42.676;23.262;2023-02-03T02:13:38;94794.50;;;1.66;100.00
12077;BME280;12420;42.676;23.262;2023-02-03T02:16:11;94845.47;;;2.08;100.00
12077;BME280;12420;42.676;23.262;2023-02-03T02:18:56;94833.34;;;1.85;100.00
12077;BME280;12420;42.676;23.262;2023-02-03T02:21:41;94859.81;;;2.18;100.00
12077;BME280;12420;42.676;23.262;2023-02-03T02:24:56;94838.06;;;2.09;100.00
12077;BME280;12420;42.676;23.262;2023-02-03T02:27:51;94876.25;;;2.33;100.00
12077;BME280;12420;42.676;23.262;2023-02-03T02:30:42;94885.09;;;2.28;100.00
12077;BME280;12420;42.676;23.262;2023-02-03T02:33:19;94856.06;;;1.91;100.00
12077;BME280;12420;42.676;23.262;2023-02-03T02:35:56;94873.78;;;2.20;100.00
12077;BME280;12420;42.676;23.262;2023-02-03T02:38:37;94748.31;;;1.39;100.00
12077;BME280;12420;42.676;23.262;2023-02-03T02:41:11;94859.91;;;2.48;100.00
12077;BME280;12420;42.676;23.262;2023-02-03T02:43:44;94841.59;;;2.39;100.00
12077;BME280;12420;42.676;23.262;2023-02-03T02:46:15;94850.41;;;2.58;100.00
12077;BME280;12420;42.676;23.262;2023-02-03T02:48:48;94832.25;;;2.70;100.00
12077;BME280;12420;42.676;23.262;2023-02-03T02:51:17;94832.63;;;2.77;100.00
12077;BME280;12420;42.676;23.262;2023-02-03T02:53:48;94854.28;;;2.66;100.00
12077;BME280;12420;42.676;23.262;2023-02-03T02:56:17;94839.72;;;2.30;100.00
12077;BME280;12420;42.676;23.262;2023-02-03T02:58:48;94747.00;;;1.97;100.00
12077;BME280;12420;42.676;23.262;2023-02-03T03:01:16;94768.47;;;2.04;100.00
12077;BME280;12420;42.676;23.262;2023-02-03T03:03:44;94900.88;;;2.87;100.00
12077;BME280;12420;42.676;23.262;2023-02-03T03:06:15;94953.56;;;2.87;100.00
12077;BME280;12420;42.676;23.262;2023-02-03T03:08:49;94853.13;;;2.43;100.00
12077;BME280;12420;42.676;23.262;2023-02-03T03:11:17;94895.75;;;2.79;100.00
12077;BME280;12420;42.676;23.262;2023-02-03T03:13:48;94902.53;;;2.69;100.00
12077;BME280;12420;42.676;23.262;2023-02-03T03:16:17;94921.44;;;2.58;100.00
12077;BME280;12420;42.676;23.262;2023-02-03T03:18:50;94911.78;;;2.72;100.00
12077;BME280;12420;42.676;23.262;2023-02-03T03:21:21;94918.13;;;2.78;100.00
12077;BME280;12420;42.676;23.262;2023-02-03T03:23:51;94913.47;;;2.69;100.00
12077;BME280;12420;42.676;23.262;2023-02-03T03:26:25;94940.44;;;2.76;100.00
12077;BME280;12420;42.676;23.262;2023-02-03T03:28:58;94879.03;;;2.48;100.00
12077;BME280;12420;42.676;23.262;2023-02-03T03:31:29;94916.03;;;2.73;100.00
12077;BME280;12420;42.676;23.262;2023-02-03T03:33:57;94928.13;;;2.57;100.00
12077;BME280;12420;42.676;23.262;2023-02-03T03:36:27;94923.34;;;2.67;100.00
12077;BME280;12420;42.676;23.262;2023-02-03T03:39:01;94880.88;;;2.42;100.00
12077;BME280;12420;42.676;23.262;2023-02-03T03:41:38;94882.81;;;2.26;100.00
12077;BME280;12420;42.676;23.262;2023-02-03T03:44:11;94942.53;;;2.81;100.00
12077;BME280;12420;42.676;23.262;2023-02-03T03:46:44;94897.25;;;2.66;100.00
12077;BME280;12420;42.676;23.262;2023-02-03T03:49:16;94840.28;;;2.34;100.00
12077;BME280;12420;42.676;23.262;2023-02-03T03:51:47;94918.53;;;2.61;100.00
12077;BME280;12420;42.676;23.262;2023-02-03T03:54:17;94861.84;;;2.08;100.00
12077;BME280;12420;42.676;23.262;2023-02-03T03:56:49;94907.97;;;2.54;100.00
12077;BME280;12420;42.676;23.262;2023-02-03T03:59:19;94910.81;;;2.36;100.00
12077;BME280;12420;42.676;23.262;2023-02-03T04:01:48;94907.81;;;2.10;100.00
12077;BME280;12420;42.676;23.262;2023-02-03T04:04:19;94905.94;;;2.16;100.00
12077;BME280;12420;42.676;23.262;2023-02-03T04:06:46;94867.03;;;1.82;100.00
12077;BME280;12420;42.676;23.262;2023-02-03T04:09:13;94838.00;;;1.37;100.00
12077;BME280;12420;42.676;23.262;2023-02-03T04:11:40;94905.09;;;2.10;100.00
12077;BME280;12420;42.676;23.262;2023-02-03T04:14:24;94929.75;;;1.91;100.00
12077;BME280;12420;42.676;23.262;2023-02-03T04:16:51;94853.69;;;1.51;100.00
12077;BME280;12420;42.676;23.262;2023-02-03T04:19:19;94920.94;;;2.21;100.00
12077;BME280;12420;42.676;23.262;2023-02-03T04:21:46;94928.44;;;2.11;100.00
12077;BME280;12420;42.676;23.262;2023-02-03T04:24:13;94887.06;;;1.79;100.00
12077;BME280;12420;42.676;23.262;2023-02-03T04:26:42;94928.56;;;2.16;100.00
12077;BME280;12420;42.676;23.262;2023-02-03T04:29:09;94936.59;;;2.20;100.00
12077;BME280;12420;42.676;23.262;2023-02-03T04:31:36;94895.66;;;1.87;100.00
12077;BME280;12420;42.676;23.262;2023-02-03T04:34:04;94865.47;;;1.24;100.00
12077;BME280;12420;42.676;23.262;2023-02-03T04:36:32;94936.34;;;2.09;100.00
12077;BME280;12420;42.676;23.262;2023-02-03T04:38:59;94942.59;;;2.00;100.00
12077;BME280;12420;42.676;23.262;2023-02-03T04:41:26;94951.19;;;1.84;100.00
12077;BME280;12420;42.676;23.262;2023-02-03T04:43:52;94942.94;;;1.93;100.00
12077;BME280;12420;42.676;23.262;2023-02-03T04:46:19;94954.38;;;1.73;100.00
12077;BME280;12420;42.676;23.262;2023-02-03T04:48:46;94940.63;;;1.67;100.00
12077;BME280;12420;42.676;23.262;2023-02-03T04:51:13;94880.47;;;1.19;100.00
12077;BME280;12420;42.676;23.262;2023-02-03T04:53:41;94956.94;;;1.86;100.00
12077;BME280;12420;42.676;23.262;2023-02-03T04:56:08;94950.00;;;1.76;100.00
12077;BME280;12420;42.676;23.262;2023-02-03T04:58:35;94960.56;;;1.83;100.00
12077;BME280;12420;42.676;23.262;2023-02-03T05:01:05;94876.91;;;0.95;100.00
12077;BME280;12420;42.676;23.262;2023-02-03T05:03:32;94962.91;;;1.66;100.00
12077;BME280;12420;42.676;23.262;2023-02-03T05:05:59;94895.31;;;1.27;100.00
12077;BME280;12420;42.676;23.262;2023-02-03T05:08:27;94943.53;;;1.55;100.00
12077;BME280;12420;42.676;23.262;2023-02-03T05:10:55;94974.78;;;1.96;100.00
12077;BME280;12420;42.676;23.262;2023-02-03T05:13:22;94966.53;;;1.72;100.00
12077;BME280;12420;42.676;23.262;2023-02-03T05:15:49;94984.06;;;1.80;100.00
12077;BME280;12420;42.676;23.262;2023-02-03T05:18:16;94965.91;;;1.68;100.00
12077;BME280;12420;42.676;23.262;2023-02-03T05:20:43;94998.53;;;1.71;100.00
12077;BME280;12420;42.676;23.262;2023-02-03T05:23:09;94939.50;;;1.41;100.00
12077;BME280;12420;42.676;23.262;2023-02-03T05:25:36;95013.91;;;1.93;100.00
12077;BME280;12420;42.676;23.262;2023-02-03T05:28:05;95005.72;;;1.93;100.00
12077;BME280;12420;42.676;23.262;2023-02-03T05:30:32;94971.25;;;1.62;100.00
12077;BME280;12420;42.676;23.262;2023-02-03T05:32:58;95021.31;;;2.02;100.00
12077;BME280;12420;42.676;23.262;2023-02-03T05:35:26;95025.81;;;2.14;100.00
12077;BME280;12420;42.676;23.262;2023-02-03T05:37:53;94931.59;;;1.52;100.00
12077;BME280;12420;42.676;23.262;2023-02-03T05:40:19;94995.94;;;2.10;100.00
12077;BME280;12420;42.676;23.262;2023-02-03T05:43:05;94944.69;;;1.72;100.00
12077;BME280;12420;42.676;23.262;2023-02-03T05:45:32;95042.44;;;2.25;100.00
12077;BME280;12420;42.676;23.262;2023-02-03T05:48:00;95012.72;;;2.27;100.00
12077;BME280;12420;42.676;23.262;2023-02-03T05:50:28;95017.63;;;2.14;100.00
12077;BME280;12420;42.676;23.262;2023-02-03T05:52:57;95077.59;;;1.99;100.00
12077;BME280;12420;42.676;23.262;2023-02-03T05:55:26;95016.78;;;1.99;100.00
12077;BME280;12420;42.676;23.262;2023-02-03T05:57:53;95036.44;;;2.12;100.00
12077;BME280;12420;42.676;23.262;2023-02-03T06:00:22;95015.47;;;1.85;100.00
12077;BME280;12420;42.676;23.262;2023-02-03T06:02:51;95011.44;;;1.52;100.00
12077;BME280;12420;42.676;23.262;2023-02-03T06:05:18;95040.31;;;1.96;100.00
12077;BME280;12420;42.676;23.262;2023-02-03T06:07:45;95009.97;;;1.94;100.00
12077;BME280;12420;42.676;23.262;2023-02-03T06:10:12;95080.16;;;2.03;100.00
12077;BME280;12420;42.676;23.262;2023-02-03T06:12:39;95014.56;;;1.79;100.00
12077;BME280;12420;42.676;23.262;2023-02-03T06:15:06;95039.31;;;2.17;100.00
12077;BME280;12420;42.676;23.262;2023-02-03T06:17:38;95028.34;;;2.27;100.00
12077;BME280;12420;42.676;23.262;2023-02-03T06:20:06;95032.81;;;2.39;100.00
12077;BME280;12420;42.676;23.262;2023-02-03T06:22:34;95031.09;;;2.51;100.00
12077;BME280;12420;42.676;23.262;2023-02-03T06:25:02;95028.78;;;2.58;100.00
12077;BME280;12420;42.676;23.262;2023-02-03T06:27:29;95048.78;;;2.89;100.00
12077;BME280;12420;42.676;23.262;2023-02-03T06:29:56;95066.63;;;2.99;100.00
12077;BME280;12420;42.676;23.262;2023-02-03T06:32:23;94969.56;;;2.31;100.00
12077;BME280;12420;42.676;23.262;2023-02-03T06:34:52;95053.03;;;2.90;100.00
12077;BME280;12420;42.676;23.262;2023-02-03T06:37:18;95006.78;;;2.77;100.00
12077;BME280;12420;42.676;23.262;2023-02-03T06:39:45;95081.75;;;3.09;100.00
12077;BME280;12420;42.676;23.262;2023-02-03T06:42:12;95073.25;;;3.31;100.00
12077;BME280;12420;42.676;23.262;2023-02-03T06:44:39;95029.47;;;2.92;100.00
12077;BME280;12420;42.676;23.262;2023-02-03T06:47:06;95083.44;;;3.45;100.00
12077;BME280;12420;42.676;23.262;2023-02-03T06:49:35;95085.00;;;3.61;100.00
12077;BME280;12420;42.676;23.262;2023-02-03T06:52:04;95085.09;;;3.67;100.00
12077;BME280;12420;42.676;23.262;2023-02-03T06:54:34;95093.81;;;3.80;100.00
12077;BME280;12420;42.676;23.262;2023-02-03T06:57:02;95088.22;;;3.75;100.00
12077;BME280;12420;42.676;23.262;2023-02-03T06:59:29;95078.69;;;3.85;100.00
12077;BME280;12420;42.676;23.262;2023-02-03T07:01:56;95060.19;;;3.65;100.00
12077;BME280;12420;42.676;23.262;2023-02-03T07:04:25;95101.16;;;4.04;100.00
12077;BME280;12420;42.676;23.262;2023-02-03T07:06:54;95105.91;;;4.18;100.00
12077;BME280;12420;42.676;23.262;2023-02-03T07:09:23;95107.41;;;4.34;100.00
12077;BME280;12420;42.676;23.262;2023-02-03T07:11:50;95008.25;;;3.85;100.00
12077;BME280;12420;42.676;23.262;2023-02-03T07:14:18;95104.53;;;4.58;100.00
12077;BME280;12420;42.676;23.262;2023-02-03T07:16:45;95036.00;;;4.08;100.00
12077;BME280;12420;42.676;23.262;2023-02-03T07:19:12;95115.66;;;4.69;100.00
12077;BME280;12420;42.676;23.262;2023-02-03T07:21:39;95119.78;;;4.79;100.00
12077;BME280;12420;42.676;23.262;2023-02-03T07:24:06;95113.44;;;4.88;100.00
12077;BME280;12420;42.676;23.262;2023-02-03T07:26:34;95124.59;;;4.85;100.00
12077;BME280;12420;42.676;23.262;2023-02-03T07:29:01;95104.75;;;4.40;100.00
12077;BME280;12420;42.676;23.262;2023-02-03T07:31:28;95122.88;;;4.52;100.00
12077;BME280;12420;42.676;23.262;2023-02-03T07:33:57;95123.53;;;4.47;100.00
12077;BME280;12420;42.676;23.262;2023-02-03T07:36:25;95150.50;;;4.19;100.00
12077;BME280;12420;42.676;23.262;2023-02-03T07:38:53;95136.50;;;4.31;100.00
12077;BME280;12420;42.676;23.262;2023-02-03T07:41:20;95138.56;;;4.22;100.00
12077;BME280;12420;42.676;23.262;2023-02-03T07:43:53;95130.25;;;3.86;100.00
12077;BME280;12420;42.676;23.262;2023-02-03T07:46:23;95034.50;;;2.70;100.00
12077;BME280;12420;42.676;23.262;2023-02-03T07:48:50;95136.44;;;3.57;100.00
12077;BME280;12420;42.676;23.262;2023-02-03T07:51:17;95147.81;;;3.80;100.00
12077;BME280;12420;42.676;23.262;2023-02-03T07:53:45;95144.19;;;3.74;100.00
12077;BME280;12420;42.676;23.262;2023-02-03T07:56:12;95129.19;;;3.30;100.00
12077;BME280;12420;42.676;23.262;2023-02-03T07:58:39;95137.03;;;3.37;100.00
12077;BME280;12420;42.676;23.262;2023-02-03T08:01:11;95149.66;;;3.35;100.00
12077;BME280;12420;42.676;23.262;2023-02-03T08:03:39;95155.50;;;3.03;100.00
12077;BME280;12420;42.676;23.262;2023-02-03T08:06:06;95140.28;;;3.02;100.00
12077;BME280;12420;42.676;23.262;2023-02-03T08:08:35;95142.28;;;3.26;100.00
12077;BME280;12420;42.676;23.262;2023-02-03T08:11:03;95156.31;;;3.19;100.00
12077;BME280;12420;42.676;23.262;2023-02-03T08:13:30;95110.03;;;3.06;100.00
12077;BME280;12420;42.676;23.262;2023-02-03T08:15:57;95134.97;;;3.08;100.00
12077;BME280;12420;42.676;23.262;2023-02-03T08:18:26;95128.16;;;3.03;100.00
12077;BME280;12420;42.676;23.262;2023-02-03T08:20:53;95135.22;;;3.10;100.00
12077;BME280;12420;42.676;23.262;2023-02-03T08:23:20;95098.41;;;2.96;100.00
12077;BME280;12420;42.676;23.262;2023-02-03T08:25:49;95130.53;;;3.11;100.00
12077;BME280;12420;42.676;23.262;2023-02-03T08:28:16;95140.69;;;3.10;100.00
12077;BME280;12420;42.676;23.262;2023-02-03T08:30:43;95144.09;;;3.29;100.00
12077;BME280;12420;42.676;23.262;2023-02-03T08:33:10;95131.91;;;3.30;100.00
12077;BME280;12420;42.676;23.262;2023-02-03T08:35:44;95139.19;;;3.33;100.00
12077;BME280;12420;42.676;23.262;2023-02-03T08:38:11;95144.84;;;3.54;100.00
12077;BME280;12420;42.676;23.262;2023-02-03T08:40:38;95159.88;;;3.73;100.00
12077;BME280;12420;42.676;23.262;2023-02-03T08:43:06;95160.88;;;3.61;100.00
12077;BME280;12420;42.676;23.262;2023-02-03T08:45:33;95169.44;;;3.78;100.00
12077;BME280;12420;42.676;23.262;2023-02-03T08:48:00;95172.00;;;3.57;100.00
12077;BME280;12420;42.676;23.262;2023-02-03T08:50:30;95173.47;;;3.67;100.00
12077;BME280;12420;42.676;23.262;2023-02-03T08:53:00;95174.81;;;3.48;100.00
12077;BME280;12420;42.676;23.262;2023-02-03T08:55:27;95172.97;;;3.54;100.00
12077;BME280;12420;42.676;23.262;2023-02-03T08:57:54;95154.69;;;3.36;100.00
12077;BME280;12420;42.676;23.262;2023-02-03T09:00:24;95172.75;;;3.58;100.00
12077;BME280;12420;42.676;23.262;2023-02-03T09:02:52;95184.13;;;3.41;100.00
12077;BME280;12420;42.676;23.262;2023-02-03T09:05:19;95183.84;;;3.39;100.00
12077;BME280;12420;42.676;23.262;2023-02-03T09:07:46;95200.59;;;3.32;100.00
12077;BME280;12420;42.676;23.262;2023-02-03T09:10:14;95122.03;;;3.09;100.00
12077;BME280;12420;42.676;23.262;2023-02-03T09:12:41;95178.72;;;3.56;100.00
12077;BME280;12420;42.676;23.262;2023-02-03T09:15:09;95147.22;;;3.13;100.00
12077;BME280;12420;42.676;23.262;2023-02-03T09:17:36;95184.00;;;3.36;100.00
12077;BME280;12420;42.676;23.262;2023-02-03T09:20:06;95149.31;;;3.18;100.00
12077;BME280;12420;42.676;23.262;2023-02-03T09:22:33;95116.31;;;3.21;100.00
12077;BME280;12420;42.676;23.262;2023-02-03T09:25:00;95182.50;;;3.35;100.00
12077;BME280;12420;42.676;23.262;2023-02-03T09:27:29;95182.66;;;3.07;100.00
12077;BME280;12420;42.676;23.262;2023-02-03T09:29:56;95177.59;;;3.15;100.00
12077;BME280;12420;42.676;23.262;2023-02-03T09:32:25;95168.59;;;3.23;100.00
12077;BME280;12420;42.676;23.262;2023-02-03T09:34:53;95132.94;;;2.51;100.00
12077;BME280;12420;42.676;23.262;2023-02-03T09:37:20;95176.97;;;3.20;100.00
12077;BME280;12420;42.676;23.262;2023-02-03T09:39:46;95140.78;;;2.68;100.00
12077;BME280;12420;42.676;23.262;2023-02-03T09:42:39;95165.03;;;3.08;100.00
12077;BME280;12420;42.676;23.262;2023-02-03T09:45:13;95172.19;;;3.30;100.00
12077;BME280;12420;42.676;23.262;2023-02-03T09:47:45;95114.13;;;2.53;100.00
12077;BME280;12420;42.676;23.262;2023-02-03T09:50:22;95175.03;;;3.35;100.00
12077;BME280;12420;42.676;23.262;2023-02-03T09:52:51;95101.03;;;2.91;100.00
12077;BME280;12420;42.676;23.262;2023-02-03T09:55:27;95178.06;;;3.37;100.00
12077;BME280;12420;42.676;23.262;2023-02-03T09:58:03;95124.09;;;2.90;100.00
12077;BME280;12420;42.676;23.262;2023-02-03T10:00:35;95133.72;;;3.33;100.00
12077;BME280;12420;42.676;23.262;2023-02-03T10:03:09;95134.09;;;3.41;100.00
12077;BME280;12420;42.676;23.262;2023-02-03T10:05:51;95117.97;;;3.67;100.00
12077;BME280;12420;42.676;23.262;2023-02-03T10:08:30;95048.25;;;3.23;100.00
12077;BME280;12420;42.676;23.262;2023-02-03T10:11:15;95148.03;;;4.21;100.00
12077;BME280;12420;42.676;23.262;2023-02-03T10:13:58;95151.81;;;4.08;100.00
12077;BME280;12420;42.676;23.262;2023-02-03T10:16:42;95155.00;;;4.07;100.00
12077;BME280;12420;42.676;23.262;2023-02-03T10:19:16;95151.13;;;3.99;100.00
12077;BME280;12420;42.676;23.262;2023-02-03T10:21:47;95145.38;;;3.97;87.51
12077;BME280;12420;42.676;23.262;2023-02-03T10:24:19;95147.66;;;4.13;80.31
12077;BME280;12420;42.676;23.262;2023-02-03T10:26:49;95107.59;;;4.30;81.42
12077;BME280;12420;42.676;23.262;2023-02-03T10:29:26;95120.56;;;4.65;76.51
12077;BME280;12420;42.676;23.262;2023-02-03T10:31:58;95136.41;;;4.91;75.87
12077;BME280;12420;42.676;23.262;2023-02-03T10:34:25;95129.31;;;5.19;76.34
12077;BME280;12420;42.676;23.262;2023-02-03T10:36:56;95093.38;;;5.17;74.98
12077;BME280;12420;42.676;23.262;2023-02-03T10:39:30;95050.28;;;4.83;70.82
12077;BME280;12420;42.676;23.262;2023-02-03T10:41:59;95109.19;;;4.87;69.59
12077;BME280;12420;42.676;23.262;2023-02-03T10:44:35;95106.94;;;4.35;71.27
12077;BME280;12420;42.676;23.262;2023-02-03T10:47:23;95089.25;;;4.22;70.98
12077;BME280;12420;42.676;23.262;2023-02-03T10:49:52;95023.19;;;3.55;69.18
12077;BME280;12420;42.676;23.262;2023-02-03T10:52:27;95090.22;;;4.04;69.42
12077;BME280;12420;42.676;23.262;2023-02-03T10:54:55;95100.88;;;4.02;67.45
12077;BME280;12420;42.676;23.262;2023-02-03T10:57:24;95182.59;;;4.03;68.63
12077;BME280;12420;42.676;23.262;2023-02-03T11:00:03;95133.47;;;4.00;69.04
12077;BME280;12420;42.676;23.262;2023-02-03T11:02:31;95074.94;;;3.82;68.75
12077;BME280;12420;42.676;23.262;2023-02-03T11:05:10;95131.59;;;4.21;68.16
12077;BME280;12420;42.676;23.262;2023-02-03T11:07:37;95127.03;;;4.32;67.61
12077;BME280;12420;42.676;23.262;2023-02-03T11:10:25;95114.78;;;4.43;69.51
12077;BME280;12420;42.676;23.262;2023-02-03T11:13:09;95146.63;;;4.25;69.53
12077;BME280;12420;42.676;23.262;2023-02-03T11:15:42;95119.88;;;3.90;71.17
12077;BME280;12420;42.676;23.262;2023-02-03T11:18:25;95054.69;;;3.50;71.04
12077;BME280;12420;42.676;23.262;2023-02-03T11:20:52;95124.50;;;3.84;72.22
12077;BME280;12420;42.676;23.262;2023-02-03T11:23:20;95106.00;;;3.79;71.76
12077;BME280;12420;42.676;23.262;2023-02-03T11:25:46;95105.22;;;3.64;72.04
12077;BME280;12420;42.676;23.262;2023-02-03T11:28:13;95144.13;;;3.83;71.97
12077;BME280;12420;42.676;23.262;2023-02-03T11:30:41;95105.50;;;3.81;70.32
12077;BME280;12420;42.676;23.262;2023-02-03T11:33:16;95073.13;;;3.79;69.62
12077;BME280;12420;42.676;23.262;2023-02-03T11:35:55;95094.56;;;4.10;69.41
12077;BME280;12420;42.676;23.262;2023-02-03T11:38:31;95065.28;;;4.02;69.25
12077;BME280;12420;42.676;23.262;2023-02-03T11:40:59;95082.81;;;4.40;69.67
12077;BME280;12420;42.676;23.262;2023-02-03T11:43:27;95079.41;;;4.45;67.70
12077;BME280;12420;42.676;23.262;2023-02-03T11:46:00;95081.94;;;4.63;67.24
12077;BME280;12420;42.676;23.262;2023-02-03T11:48:31;95032.03;;;3.94;63.46
12077;BME280;12420;42.676;23.262;2023-02-03T11:51:09;95090.78;;;4.23;65.19
12077;BME280;12420;42.676;23.262;2023-02-03T11:53:46;95069.25;;;4.30;66.14
12077;BME280;12420;42.676;23.262;2023-02-03T11:56:26;95048.00;;;4.61;64.95
12077;BME280;12420;42.676;23.262;2023-02-03T11:59:24;95074.41;;;4.78;62.03
12077;BME280;12420;42.676;23.262;2023-02-03T12:02:06;95062.97;;;5.00;61.28
12077;BME280;12420;42.676;23.262;2023-02-03T12:04:51;95048.03;;;4.46;60.67
12077;BME280;12420;42.676;23.262;2023-02-03T12:07:37;95057.66;;;4.56;60.20
12077;BME280;12420;42.676;23.262;2023-02-03T12:10:17;95069.56;;;4.53;60.56
12077;BME280;12420;42.676;23.262;2023-02-03T12:12:51;95115.59;;;4.49;62.08
12077;BME280;12420;42.676;23.262;2023-02-03T12:15:49;95080.97;;;4.16;62.16
12077;BME280;12420;42.676;23.262;2023-02-03T12:18:32;95062.72;;;4.13;62.02
12077;BME280;12420;42.676;23.262;2023-02-03T12:21:13;95013.84;;;3.61;61.86
12077;BME280;12420;42.676;23.262;2023-02-03T12:23:50;95066.22;;;3.99;59.98
12077;BME280;12420;42.676;23.262;2023-02-03T12:26:21;95064.63;;;3.92;60.38
12077;BME280;12420;42.676;23.262;2023-02-03T12:28:56;95062.75;;;3.98;60.46
12077;BME280;12420;42.676;23.262;2023-02-03T12:31:30;95075.41;;;3.96;60.72
12077;BME280;12420;42.676;23.262;2023-02-03T12:34:09;95014.47;;;3.86;61.13
12077;BME280;12420;42.676;23.262;2023-02-03T12:36:39;95102.50;;;4.23;59.05
12077;BME280;12420;42.676;23.262;2023-02-03T12:39:13;95052.59;;;4.19;60.07
12077;BME280;12420;42.676;23.262;2023-02-03T12:41:47;95007.59;;;3.76;60.57
12077;BME280;12420;42.676;23.262;2023-02-03T12:44:19;95039.56;;;4.14;61.62
12077;BME280;12420;42.676;23.262;2023-02-03T12:46:52;95043.94;;;3.91;61.37
12077;BME280;12420;42.676;23.262;2023-02-03T12:49:31;95053.56;;;3.86;62.30
12077;BME280;12420;42.676;23.262;2023-02-03T12:52:02;95073.13;;;3.79;63.13
12077;BME280;12420;42.676;23.262;2023-02-03T12:54:45;95059.53;;;3.70;63.09
12077;BME280;12420;42.676;23.262;2023-02-03T12:57:19;95033.28;;;3.63;64.69
12077;BME280;12420;42.676;23.262;2023-02-03T13:00:03;95031.84;;;3.68;66.20
12077;BME280;12420;42.676;23.262;2023-02-03T13:02:43;94945.97;;;3.06;66.63
12077;BME280;12420;42.676;23.262;2023-02-03T13:05:21;95038.47;;;3.76;66.90
12077;BME280;12420;42.676;23.262;2023-02-03T13:07:53;95045.38;;;3.57;68.44
12077;BME280;12420;42.676;23.262;2023-02-03T13:10:27;95032.03;;;3.50;68.98